createdAt,value
2019-05-20T00:01:14.602Z,99.90
2019-05-20T00:03:42.943Z,99.90
2019-05-20T00:06:11.491Z,99.90
2019-05-20T00:08:39.969Z,99.90
2019-05-20T00:11:08.482Z,99.90
2019-05-20T00:13:36.751Z,99.90
2019-05-20T00:16:05.255Z,99.90
2019-05-20T00:18:34.805Z,99.90
2019-05-20T00:21:03.125Z,99.90
2019-05-20T00:23:31.497Z,99.90
2019-05-20T00:26:00.030Z,99.90
2019-05-20T00:28:28.347Z,99.90
2019-05-20T00:30:56.614Z,99.90
2019-05-20T00:33:24.903Z,99.90
2019-05-20T00:35:53.347Z,99.90
2019-05-20T00:38:21.679Z,99.90
2019-05-20T00:40:50.157Z,99.90
2019-05-20T00:43:18.437Z,99.90
2019-05-20T00:45:46.848Z,99.90
2019-05-20T00:48:15.185Z,99.90
2019-05-20T00:50:43.662Z,99.90
2019-05-20T00:53:12.095Z,99.90
2019-05-20T00:55:40.610Z,99.90
2019-05-20T00:58:09.139Z,99.90
2019-05-20T01:00:37.508Z,99.90
2019-05-20T01:03:05.926Z,99.90
2019-05-20T01:05:34.698Z,99.90
2019-05-20T01:08:02.974Z,99.90
2019-05-20T01:10:32.096Z,99.90
2019-05-20T01:13:00.533Z,99.90
2019-05-20T01:15:29.078Z,99.90
2019-05-20T01:17:57.381Z,99.90
2019-05-20T01:20:25.784Z,99.90
2019-05-20T01:22:54.330Z,99.90
2019-05-20T01:25:22.785Z,99.90
2019-05-20T01:27:51.214Z,99.90
2019-05-20T01:30:19.660Z,99.90
2019-05-20T01:32:48.082Z,99.90
2019-05-20T01:35:16.676Z,99.90
2019-05-20T01:37:45.161Z,99.90
2019-05-20T01:40:13.585Z,99.90
2019-05-20T01:42:41.922Z,99.90
2019-05-20T01:45:10.267Z,99.90
2019-05-20T01:47:38.877Z,99.90
2019-05-20T01:50:07.647Z,99.90
2019-05-20T01:52:36.082Z,99.90
2019-05-20T01:55:06.521Z,99.90
2019-05-20T01:57:34.999Z,99.90
2019-05-20T02:00:05.306Z,99.90
2019-05-20T02:02:33.852Z,99.90
2019-05-20T02:05:06.344Z,99.90
2019-05-20T02:07:35.499Z,99.90
2019-05-20T02:10:07.266Z,99.90
2019-05-20T02:12:35.815Z,99.90
2019-05-20T02:15:23.702Z,99.90
2019-05-20T02:17:52.403Z,99.90
2019-05-20T02:20:20.822Z,99.90
2019-05-20T02:22:49.089Z,99.90
2019-05-20T02:25:17.582Z,99.90
2019-05-20T02:27:46.011Z,99.90
2019-05-20T02:30:14.322Z,99.90
2019-05-20T02:32:42.695Z,99.90
2019-05-20T02:35:11.089Z,99.90
2019-05-20T02:37:39.363Z,99.90
2019-05-20T02:40:08.272Z,99.90
2019-05-20T02:42:36.637Z,99.90
2019-05-20T02:45:06.828Z,99.90
2019-05-20T02:47:35.243Z,99.90
2019-05-20T02:50:04.721Z,99.90
2019-05-20T02:52:33.136Z,99.90
2019-05-20T02:55:01.752Z,99.90
2019-05-20T02:57:30.816Z,99.90
2019-05-20T02:59:59.678Z,99.90
2019-05-20T03:02:36.776Z,99.90
2019-05-20T03:05:02.746Z,99.90
2019-05-20T03:07:31.207Z,99.90
2019-05-20T03:09:59.813Z,99.90
2019-05-20T03:12:31.130Z,99.90
2019-05-20T03:15:00.038Z,99.90
2019-05-20T03:17:28.425Z,99.90
2019-05-20T03:19:56.901Z,99.90
2019-05-20T03:22:25.229Z,99.90
2019-05-20T03:24:53.672Z,99.90
2019-05-20T03:27:22.064Z,99.90
2019-05-20T03:29:50.602Z,99.90
2019-05-20T03:32:21.069Z,99.90
2019-05-20T03:34:58.500Z,99.90
2019-05-20T03:37:18.971Z,99.90
2019-05-20T03:39:50.309Z,99.90
2019-05-20T03:42:18.611Z,99.90
2019-05-20T03:44:46.911Z,99.90
2019-05-20T03:47:15.516Z,99.90
2019-05-20T03:49:43.866Z,99.90
2019-05-20T03:52:12.168Z,99.90
2019-05-20T03:54:40.678Z,99.90
2019-05-20T03:57:09.539Z,99.90
2019-05-20T03:59:40.600Z,99.90
2019-05-20T04:02:09.102Z,99.90
2019-05-20T04:04:37.656Z,99.90
2019-05-20T04:07:07.970Z,99.90
2019-05-20T04:09:36.968Z,99.90
2019-05-20T04:12:08.192Z,99.90
2019-05-20T04:14:43.099Z,99.90
2019-05-20T04:17:09.818Z,99.90
2019-05-20T04:19:38.282Z,99.90
2019-05-20T04:22:09.556Z,99.90
2019-05-20T04:24:37.861Z,99.90
2019-05-20T04:27:07.176Z,99.90
2019-05-20T04:29:35.881Z,99.90
2019-05-20T04:32:07.734Z,99.90
2019-05-20T04:34:36.845Z,99.90
2019-05-20T04:37:05.713Z,99.90
2019-05-20T04:39:35.651Z,99.90
2019-05-20T04:42:06.496Z,99.90
2019-05-20T04:44:35.636Z,99.90
2019-05-20T04:47:04.334Z,99.90
2019-05-20T04:49:33.751Z,99.90
2019-05-20T04:52:02.492Z,99.90
2019-05-20T04:54:31.194Z,99.90
2019-05-20T04:57:00.676Z,99.90
2019-05-20T04:59:29.294Z,99.90
2019-05-20T05:02:00.405Z,99.90
2019-05-20T05:04:28.750Z,99.90
2019-05-20T05:06:57.291Z,99.90
2019-05-20T05:09:25.668Z,99.90
2019-05-20T05:11:53.959Z,99.90
2019-05-20T05:14:23.341Z,99.90
2019-05-20T05:16:52.827Z,99.90
2019-05-20T05:19:22.673Z,99.90
2019-05-20T05:21:51.207Z,99.90
2019-05-20T05:24:19.713Z,99.90
2019-05-20T05:26:48.220Z,99.90
2019-05-20T05:29:16.825Z,99.90
2019-05-20T05:31:45.541Z,99.90
2019-05-20T05:34:14.604Z,99.90
2019-05-20T05:36:43.342Z,99.90
2019-05-20T05:39:11.967Z,99.90
2019-05-20T05:41:40.352Z,99.90
2019-05-20T05:44:09.848Z,99.90
2019-05-20T05:46:38.224Z,99.90
2019-05-20T05:49:06.731Z,99.90
2019-05-20T05:51:35.737Z,99.20
2019-05-20T05:54:05.269Z,97.20
2019-05-20T05:56:35.879Z,96.50
2019-05-20T05:59:05.404Z,95.60
2019-05-20T06:01:35.021Z,95.50
2019-05-20T06:04:03.540Z,96.00
2019-05-20T06:06:32.352Z,97.20
2019-05-20T06:09:01.700Z,98.10
2019-05-20T06:11:31.060Z,97.80
2019-05-20T06:14:01.488Z,97.60
2019-05-20T06:16:36.587Z,96.80
2019-05-20T06:19:01.727Z,92.40
2019-05-20T06:21:31.034Z,92.30
2019-05-20T06:24:00.076Z,93.10
2019-05-20T06:26:28.905Z,91.60
2019-05-20T06:29:02.922Z,90.00
2019-05-20T06:31:32.351Z,91.70
2019-05-20T06:34:00.685Z,92.70
2019-05-20T06:36:29.595Z,93.80
2019-05-20T06:39:14.084Z,94.40
2019-05-20T06:41:42.912Z,93.60
2019-05-20T06:44:11.952Z,93.00
2019-05-20T06:46:40.410Z,93.30
2019-05-20T06:49:09.477Z,93.60
2019-05-20T06:51:41.524Z,92.80
2019-05-20T06:54:11.963Z,91.80
2019-05-20T06:56:41.597Z,90.40
2019-05-20T06:59:10.591Z,89.50
2019-05-20T07:01:40.813Z,85.20
2019-05-20T07:04:10.823Z,86.40
2019-05-20T07:06:46.447Z,86.50
2019-05-20T07:09:09.385Z,88.90
2019-05-20T07:11:39.930Z,90.90
2019-05-20T07:14:09.231Z,90.10
2019-05-20T07:16:41.201Z,86.10
2019-05-20T07:19:12.150Z,85.70
2019-05-20T07:21:44.050Z,84.70
2019-05-20T07:24:12.694Z,82.80
2019-05-20T07:26:41.163Z,79.10
2019-05-20T07:29:10.120Z,66.60
2019-05-20T07:31:40.991Z,63.70
2019-05-20T07:34:11.875Z,68.50
2019-05-20T07:36:41.574Z,71.50
2019-05-20T07:39:14.143Z,71.20
2019-05-20T07:41:43.267Z,68.90
2019-05-20T07:44:16.734Z,59.40
2019-05-20T07:46:45.551Z,56.10
2019-05-20T07:49:14.731Z,56.30
2019-05-20T07:51:43.347Z,53.10
2019-05-20T07:54:13.084Z,47.20
2019-05-20T07:56:42.163Z,50.40
2019-05-20T07:59:10.665Z,46.80
2019-05-20T08:01:39.646Z,49.30
2019-05-20T08:04:08.384Z,53.60
2019-05-20T08:06:37.063Z,55.60
2019-05-20T08:09:07.500Z,55.70
2019-05-20T08:11:36.675Z,57.90
2019-05-20T08:14:05.358Z,64.10
2019-05-20T08:16:34.415Z,60.10
2019-05-20T08:19:03.224Z,48.60
2019-05-20T08:21:32.029Z,44.40
2019-05-20T08:24:00.585Z,41.30
2019-05-20T08:26:29.320Z,40.50
2019-05-20T08:28:58.009Z,37.40
2019-05-20T08:31:26.670Z,38.30
2019-05-20T08:33:57.879Z,39.20
2019-05-20T08:36:26.401Z,40.20
2019-05-20T08:38:55.219Z,38.60
2019-05-20T08:41:24.204Z,40.40
2019-05-20T08:43:53.052Z,38.70
2019-05-20T08:46:22.070Z,43.00
2019-05-20T08:48:50.714Z,44.10
2019-05-20T08:51:19.521Z,45.90
2019-05-20T08:53:47.957Z,48.80
2019-05-20T08:56:16.682Z,52.80
2019-05-20T08:58:45.687Z,54.00
2019-05-20T09:01:14.661Z,52.30
2019-05-20T09:03:43.667Z,52.30
2019-05-20T09:06:14.692Z,53.90
2019-05-20T09:08:45.370Z,48.80
2019-05-20T09:11:16.505Z,50.00
2019-05-20T09:13:45.739Z,46.10
2019-05-20T09:16:15.802Z,47.10
2019-05-20T09:18:44.681Z,44.50
2019-05-20T09:21:14.039Z,46.00
2019-05-20T09:23:42.495Z,44.40
2019-05-20T09:26:11.240Z,45.50
2019-05-20T09:28:40.086Z,44.20
2019-05-20T09:31:08.867Z,46.70
2019-05-20T09:33:38.454Z,45.60
2019-05-20T09:36:07.129Z,44.30
2019-05-20T09:38:38.659Z,44.90
2019-05-20T09:41:08.154Z,48.20
2019-05-20T09:43:37.015Z,49.20
2019-05-20T09:46:08.187Z,48.70
2019-05-20T09:48:36.180Z,51.40
2019-05-20T09:51:15.453Z,55.30
2019-05-20T09:53:44.703Z,54.80
2019-05-20T09:56:14.263Z,56.30
2019-05-20T09:58:43.612Z,57.50
2019-05-20T10:01:12.703Z,55.90
2019-05-20T10:03:44.308Z,57.50
2019-05-20T10:06:13.118Z,57.90
2019-05-20T10:08:47.378Z,55.70
2019-05-20T10:11:16.609Z,56.90
2019-05-20T10:13:45.269Z,57.20
2019-05-20T10:16:14.133Z,58.30
2019-05-20T10:18:44.633Z,57.80
2019-05-20T10:21:13.550Z,61.30
2019-05-20T10:23:42.735Z,62.90
2019-05-20T10:26:11.425Z,63.30
2019-05-20T10:28:42.186Z,63.80
2019-05-20T10:31:11.163Z,64.70
2019-05-20T10:33:44.422Z,63.50
2019-05-20T10:36:14.826Z,65.70
2019-05-20T10:38:57.266Z,65.80
2019-05-20T10:41:14.682Z,65.40
2019-05-20T10:43:44.007Z,66.40
2019-05-20T10:46:12.660Z,65.10
2019-05-20T10:48:41.371Z,63.50
2019-05-20T10:51:10.547Z,64.90
2019-05-20T10:53:39.751Z,63.70
2019-05-20T10:56:08.503Z,62.30
2019-05-20T10:58:40.277Z,62.90
2019-05-20T11:01:08.692Z,59.10
2019-05-20T11:03:37.806Z,57.80
2019-05-20T11:06:07.079Z,61.20
2019-05-20T11:08:35.879Z,58.80
2019-05-20T11:11:04.893Z,59.50
2019-05-20T11:13:35.085Z,57.00
2019-05-20T11:16:04.064Z,59.90
2019-05-20T11:18:32.880Z,56.60
2019-05-20T11:21:01.868Z,54.40
2019-05-20T11:23:30.387Z,55.40
2019-05-20T11:25:58.937Z,58.10
2019-05-20T11:28:28.109Z,56.40
2019-05-20T11:31:09.220Z,55.80
2019-05-20T11:33:40.777Z,55.30
2019-05-20T11:36:16.038Z,57.00
2019-05-20T11:38:45.855Z,56.10
2019-05-20T11:41:19.163Z,58.40
2019-05-20T11:43:48.665Z,58.50
2019-05-20T11:46:22.101Z,57.20
2019-05-20T11:48:52.526Z,58.40
2019-05-20T11:51:22.903Z,57.50
2019-05-20T11:53:56.034Z,59.10
2019-05-20T11:56:25.436Z,57.90
2019-05-20T11:58:59.456Z,57.30
2019-05-20T12:01:41.034Z,59.90
2019-05-20T12:04:14.627Z,57.50
2019-05-20T12:06:47.860Z,55.30
2019-05-20T12:09:19.459Z,56.80
2019-05-20T12:11:49.285Z,57.90
2019-05-20T12:14:24.712Z,58.70
2019-05-20T12:16:57.100Z,61.40
2019-05-20T12:19:26.953Z,57.40
2019-05-20T12:21:57.137Z,57.90
2019-05-20T12:24:28.324Z,57.90
2019-05-20T12:27:01.935Z,59.10
2019-05-20T12:29:33.170Z,56.50
2019-05-20T12:32:03.851Z,59.60
2019-05-20T12:34:35.198Z,60.10
2019-05-20T12:37:13.448Z,59.00
2019-05-20T12:39:42.872Z,57.40
2019-05-20T12:42:24.380Z,56.40
2019-05-20T12:44:52.509Z,58.80
2019-05-20T12:47:27.923Z,58.80
2019-05-20T12:49:58.380Z,57.90
2019-05-20T12:52:36.316Z,56.90
2019-05-20T12:55:10.408Z,55.00
2019-05-20T12:57:41.355Z,54.10
2019-05-20T13:00:17.523Z,58.00
2019-05-20T13:02:47.874Z,57.10
2019-05-20T13:05:19.983Z,56.50
2019-05-20T13:07:51.223Z,56.70
2019-05-20T13:10:29.848Z,58.10
2019-05-20T13:12:56.050Z,58.00
2019-05-20T13:15:27.000Z,51.60
2019-05-20T13:17:56.822Z,54.80
2019-05-20T13:20:29.258Z,56.30
2019-05-20T13:22:58.850Z,53.30
2019-05-20T13:25:30.259Z,54.40
2019-05-20T13:27:58.857Z,53.30
2019-05-20T13:30:31.180Z,55.70
2019-05-20T13:33:00.507Z,57.90
2019-05-20T13:35:30.693Z,55.00
2019-05-20T13:38:05.094Z,54.60
2019-05-20T13:40:45.869Z,56.30
2019-05-20T13:43:11.348Z,55.20
2019-05-20T13:45:39.709Z,55.60
2019-05-20T13:48:09.902Z,54.20
2019-05-20T13:50:43.718Z,56.60
2019-05-20T13:53:14.455Z,56.30
2019-05-20T13:55:45.405Z,54.40
2019-05-20T13:58:17.660Z,58.50
2019-05-20T14:00:50.760Z,59.30
2019-05-20T14:03:20.555Z,59.20
2019-05-20T14:05:50.194Z,57.30
2019-05-20T14:08:22.183Z,57.80
2019-05-20T14:11:03.484Z,57.10
2019-05-20T14:13:29.926Z,58.00
2019-05-20T14:16:01.202Z,59.00
2019-05-20T14:18:30.382Z,60.20
2019-05-20T14:21:01.698Z,60.30
2019-05-20T14:23:34.062Z,59.90
2019-05-20T14:26:03.372Z,59.00
2019-05-20T14:28:32.908Z,58.70
2019-05-20T14:31:05.815Z,57.60
2019-05-20T14:33:33.768Z,58.20
2019-05-20T14:36:04.295Z,60.50
2019-05-20T14:38:35.172Z,63.00
2019-05-20T14:41:20.350Z,60.90
2019-05-20T14:43:40.125Z,59.20
2019-05-20T14:46:09.856Z,58.60
2019-05-20T14:48:38.262Z,58.90
2019-05-20T14:51:09.086Z,57.50
2019-05-20T14:53:39.067Z,62.00
2019-05-20T14:56:10.893Z,58.50
2019-05-20T14:58:40.827Z,58.40
2019-05-20T15:01:08.920Z,57.80
2019-05-20T15:03:38.866Z,59.50
2019-05-20T15:06:06.865Z,60.60
2019-05-20T15:08:35.619Z,60.10
2019-05-20T15:11:04.603Z,60.40
2019-05-20T15:13:34.277Z,60.50
2019-05-20T15:16:03.175Z,62.30
2019-05-20T15:18:33.777Z,64.60
2019-05-20T15:21:05.215Z,62.50
2019-05-20T15:23:36.423Z,63.20
2019-05-20T15:26:08.793Z,61.00
2019-05-20T15:28:38.908Z,63.20
2019-05-20T15:31:11.515Z,63.70
2019-05-20T15:33:41.473Z,65.50
2019-05-20T15:36:10.569Z,64.60
2019-05-20T15:38:40.241Z,63.20
2019-05-20T15:41:09.914Z,64.70
2019-05-20T15:43:38.461Z,66.20
2019-05-20T15:46:07.629Z,59.30
2019-05-20T15:48:36.819Z,62.60
2019-05-20T15:51:17.910Z,59.70
2019-05-20T15:53:48.649Z,61.40
2019-05-20T15:56:18.524Z,63.80
2019-05-20T15:58:47.551Z,64.50
2019-05-20T16:01:17.328Z,66.40
2019-05-20T16:03:51.160Z,66.00
2019-05-20T16:06:19.075Z,69.00
2019-05-20T16:08:47.879Z,68.90
2019-05-20T16:11:16.987Z,70.90
2019-05-20T16:13:46.735Z,72.00
2019-05-20T16:16:15.011Z,69.10
2019-05-20T16:18:44.801Z,69.00
2019-05-20T16:21:13.257Z,66.10
2019-05-20T16:23:42.796Z,65.60
2019-05-20T16:26:11.859Z,66.90
2019-05-20T16:28:43.059Z,66.50
2019-05-20T16:31:16.250Z,64.40
2019-05-20T16:33:48.511Z,66.50
2019-05-20T16:36:17.036Z,68.30
2019-05-20T16:38:46.844Z,66.70
2019-05-20T16:41:14.806Z,69.70
2019-05-20T16:43:47.738Z,71.90
2019-05-20T16:46:16.809Z,71.30
2019-05-20T16:48:45.822Z,70.10
2019-05-20T16:51:14.690Z,71.90
2019-05-20T16:53:43.823Z,69.70
2019-05-20T16:56:12.594Z,72.20
2019-05-20T16:58:41.574Z,69.90
2019-05-20T17:01:10.439Z,70.50
2019-05-20T17:03:39.130Z,70.20
2019-05-20T17:06:08.022Z,74.80
2019-05-20T17:08:37.049Z,74.30
2019-05-20T17:11:08.136Z,75.10
2019-05-20T17:13:39.038Z,77.20
2019-05-20T17:16:08.047Z,79.40
2019-05-20T17:18:37.597Z,78.50
2019-05-20T17:21:16.566Z,75.20
2019-05-20T17:23:45.439Z,79.70
2019-05-20T17:26:22.558Z,78.20
2019-05-20T17:28:52.135Z,82.90
2019-05-20T17:31:20.808Z,81.80
2019-05-20T17:33:49.325Z,83.50
2019-05-20T17:36:18.057Z,84.70
2019-05-20T17:38:47.287Z,85.20
2019-05-20T17:41:19.743Z,87.00
2019-05-20T17:43:49.334Z,87.40
2019-05-20T17:46:19.355Z,88.00
2019-05-20T17:48:48.883Z,90.10
2019-05-20T17:51:21.542Z,90.00
2019-05-20T17:53:51.256Z,90.10
2019-05-20T17:56:21.472Z,89.00
2019-05-20T17:58:51.847Z,90.60
2019-05-20T18:01:20.885Z,92.50
2019-05-20T18:03:50.685Z,92.20
2019-05-20T18:06:20.189Z,92.80
2019-05-20T18:08:50.402Z,92.80
2019-05-20T18:11:19.986Z,91.90
2019-05-20T18:13:49.676Z,90.10
2019-05-20T18:16:24.835Z,90.90
2019-05-20T18:18:53.907Z,90.60
2019-05-20T18:21:22.746Z,90.10
2019-05-20T18:23:51.491Z,90.70
2019-05-20T18:26:19.975Z,90.00
2019-05-20T18:28:51.246Z,90.20
2019-05-20T18:31:31.909Z,90.20
2019-05-20T18:33:52.877Z,91.50
2019-05-20T18:36:26.373Z,92.30
2019-05-20T18:39:06.119Z,93.20
2019-05-20T18:41:37.227Z,92.80
2019-05-20T18:44:09.030Z,92.10
2019-05-20T18:46:40.191Z,92.80
2019-05-20T18:49:16.336Z,93.70
2019-05-20T18:51:48.700Z,93.10
2019-05-20T18:54:26.549Z,93.20
2019-05-20T18:57:00.249Z,93.00
2019-05-20T18:59:29.511Z,92.40
2019-05-20T19:02:05.505Z,92.00
2019-05-20T19:04:35.938Z,92.80
2019-05-20T19:07:05.213Z,93.40
2019-05-20T19:09:36.264Z,92.70
2019-05-20T19:12:07.493Z,93.60
2019-05-20T19:14:38.781Z,94.10
2019-05-20T19:17:09.391Z,95.10
2019-05-20T19:19:38.433Z,95.40
2019-05-20T19:22:09.832Z,95.40
2019-05-20T19:24:39.595Z,96.10
2019-05-20T19:27:09.747Z,96.70
2019-05-20T19:29:38.635Z,96.10
2019-05-20T19:32:07.181Z,96.80
2019-05-20T19:34:36.900Z,96.60
2019-05-20T19:37:05.480Z,96.50
2019-05-20T19:39:34.793Z,96.80
2019-05-20T19:42:04.854Z,97.00
2019-05-20T19:44:32.832Z,97.10
2019-05-20T19:47:01.806Z,97.80
2019-05-20T19:49:30.157Z,97.10
2019-05-20T19:51:58.693Z,97.50
2019-05-20T19:54:27.271Z,97.60
2019-05-20T19:56:59.300Z,97.40
2019-05-20T19:59:30.690Z,97.70
2019-05-20T20:01:59.951Z,98.30
2019-05-20T20:04:29.012Z,98.30
2019-05-20T20:06:58.360Z,98.60
2019-05-20T20:09:26.982Z,98.70
2019-05-20T20:11:55.665Z,98.50
2019-05-20T20:14:25.670Z,99.30
2019-05-20T20:16:54.059Z,99.40
2019-05-20T20:19:22.618Z,99.00
2019-05-20T20:21:51.160Z,98.70
2019-05-20T20:24:19.696Z,99.20
2019-05-20T20:26:48.223Z,99.00
2019-05-20T20:29:16.605Z,99.40
2019-05-20T20:31:44.872Z,99.70
2019-05-20T20:34:13.209Z,99.70
2019-05-20T20:36:42.031Z,99.60
2019-05-20T20:39:10.649Z,99.60
2019-05-20T20:41:39.312Z,99.90
2019-05-20T20:44:08.091Z,99.80
2019-05-20T20:46:39.990Z,99.70
2019-05-20T20:49:07.374Z,99.50
2019-05-20T20:51:35.730Z,99.90
2019-05-20T20:54:04.582Z,99.70
2019-05-20T20:56:34.313Z,99.90
2019-05-20T20:59:02.974Z,99.90
2019-05-20T21:01:31.328Z,99.90
2019-05-20T21:04:00.201Z,99.90
2019-05-20T21:06:28.629Z,99.90
2019-05-20T21:08:57.191Z,99.90
2019-05-20T21:11:25.770Z,99.90
2019-05-20T21:13:55.226Z,99.90
2019-05-20T21:16:23.915Z,99.90
2019-05-20T21:18:56.384Z,99.90
2019-05-20T21:21:25.265Z,99.90
2019-05-20T21:23:57.994Z,99.90
2019-05-20T21:26:26.607Z,99.90
2019-05-20T21:28:56.397Z,99.90
2019-05-20T21:31:25.142Z,99.90
2019-05-20T21:33:53.659Z,99.90
2019-05-20T21:36:22.092Z,99.90
2019-05-20T21:38:50.611Z,99.90
2019-05-20T21:41:19.998Z,99.90
2019-05-20T21:43:48.453Z,99.90
2019-05-20T21:46:17.259Z,99.90
2019-05-20T21:48:46.833Z,99.90
2019-05-20T21:51:15.214Z,99.90
2019-05-20T21:54:00.870Z,99.90
2019-05-20T21:56:46.008Z,99.90
2019-05-20T21:59:11.615Z,99.90
2019-05-20T22:01:40.243Z,99.90
2019-05-20T22:04:09.078Z,99.90
2019-05-20T22:06:37.414Z,99.90
2019-05-20T22:09:08.978Z,99.90
2019-05-20T22:11:44.336Z,99.90
2019-05-20T22:14:14.328Z,99.90
2019-05-20T22:16:44.878Z,99.90
2019-05-20T22:19:18.666Z,99.90
2019-05-20T22:21:52.207Z,99.90
2019-05-20T22:24:21.154Z,99.90
2019-05-20T22:26:49.596Z,99.90
2019-05-20T22:29:22.059Z,99.90
2019-05-20T22:31:56.610Z,99.90
2019-05-20T22:34:27.868Z,99.90
2019-05-20T22:36:56.284Z,99.90
2019-05-20T22:39:24.761Z,99.90
2019-05-20T22:41:53.535Z,99.90
2019-05-20T22:44:21.940Z,99.90
2019-05-20T22:46:50.405Z,99.90
2019-05-20T22:49:19.302Z,99.90
2019-05-20T22:51:48.129Z,99.90
2019-05-20T22:54:16.612Z,99.90
2019-05-20T22:56:48.112Z,99.90
2019-05-20T22:59:16.583Z,99.90
2019-05-20T23:01:45.270Z,99.90
2019-05-20T23:04:13.931Z,99.90
2019-05-20T23:06:42.178Z,99.90
2019-05-20T23:09:10.992Z,99.90
2019-05-20T23:11:40.011Z,99.90
2019-05-20T23:14:08.541Z,99.90
2019-05-20T23:16:40.892Z,99.90
2019-05-20T23:19:10.084Z,99.90
2019-05-20T23:21:38.469Z,99.90
2019-05-20T23:24:07.049Z,99.90
2019-05-20T23:26:35.365Z,99.90
2019-05-20T23:29:03.626Z,99.90
2019-05-20T23:31:32.227Z,99.90
2019-05-20T23:34:12.387Z,99.90
2019-05-20T23:36:31.112Z,99.90
2019-05-20T23:38:59.688Z,99.90
2019-05-20T23:41:28.161Z,99.90
2019-05-20T23:43:56.540Z,99.90
2019-05-20T23:46:24.886Z,99.90
2019-05-20T23:48:53.221Z,99.90
2019-05-20T23:51:21.623Z,99.90
2019-05-20T23:53:50.791Z,99.90
2019-05-20T23:56:19.801Z,99.90
2019-05-20T23:58:48.730Z,99.90
